Terminal Aerodrome Forecast
Issued by NWS

Home | Current Version | Previous Version | Text Only | Print | Product List | Glossary On
Versions: 1 2 3 4 5 6 7 8 9 10 11 12 13 14 15 16 17 18
646
FTUS42 KKEY 250526
TAFMTH
TAF
KMTH 250526Z 2506/2606 15003KT P6SM FEW024
     FM250900 17003KT P6SM SCT024 SCT200
     FM251500 20004KT P6SM SCT024 BKN200=

USA.gov is the U.S. government's official web portal to all federal, state and local government web resources and services.